sensor_id;sensor_type;location;lat;lon;timestamp;pressure;altitude;pressure_sealevel;temperature;humidity
21401;BME280;18038;50.166;18.908;2023-05-11T00:02:08;98126.00;;;8.04;51.11
21401;BME280;18038;50.166;18.908;2023-05-11T00:05:20;98125.22;;;7.96;51.66
21401;BME280;18038;50.166;18.908;2023-05-11T00:08:26;98124.66;;;7.77;52.50
21401;BME280;18038;50.166;18.908;2023-05-11T00:11:33;98123.84;;;7.77;52.26
21401;BME280;18038;50.166;18.908;2023-05-11T00:14:42;98115.41;;;7.65;52.85
21401;BME280;18038;50.166;18.908;2023-05-11T00:17:49;98109.16;;;7.58;53.16
21401;BME280;18038;50.166;18.908;2023-05-11T00:20:56;98117.31;;;7.48;53.23
21401;BME280;18038;50.166;18.908;2023-05-11T00:24:02;98113.50;;;7.51;53.48
21401;BME280;18038;50.166;18.908;2023-05-11T00:27:09;98116.81;;;7.44;53.33
21401;BME280;18038;50.166;18.908;2023-05-11T00:30:18;98119.47;;;7.44;53.15
21401;BME280;18038;50.166;18.908;2023-05-11T00:33:26;98114.16;;;7.44;53.12
21401;BME280;18038;50.166;18.908;2023-05-11T00:36:32;98116.81;;;7.44;53.56
21401;BME280;18038;50.166;18.908;2023-05-11T00:39:43;98117.38;;;7.40;53.20
21401;BME280;18038;50.166;18.908;2023-05-11T00:42:49;98121.50;;;7.42;53.29
21401;BME280;18038;50.166;18.908;2023-05-11T00:45:59;98112.53;;;7.35;53.53
21401;BME280;18038;50.166;18.908;2023-05-11T00:49:07;98114.00;;;7.46;53.40
21401;BME280;18038;50.166;18.908;2023-05-11T00:52:16;98118.19;;;7.40;53.38
21401;BME280;18038;50.166;18.908;2023-05-11T00:55:26;98117.84;;;7.35;53.54
21401;BME280;18038;50.166;18.908;2023-05-11T00:58:34;98113.88;;;7.39;53.36
21401;BME280;18038;50.166;18.908;2023-05-11T01:01:43;98120.69;;;7.26;54.05
21401;BME280;18038;50.166;18.908;2023-05-11T01:04:50;98113.84;;;7.31;53.80
21401;BME280;18038;50.166;18.908;2023-05-11T01:08:00;98116.53;;;7.39;53.65
21401;BME280;18038;50.166;18.908;2023-05-11T01:11:19;98114.50;;;7.41;53.52
21401;BME280;18038;50.166;18.908;2023-05-11T01:14:36;98116.53;;;7.39;53.56
21401;BME280;18038;50.166;18.908;2023-05-11T01:17:57;98118.22;;;7.24;53.94
21401;BME280;18038;50.166;18.908;2023-05-11T01:21:12;98114.41;;;7.18;54.23
21401;BME280;18038;50.166;18.908;2023-05-11T01:24:35;98114.94;;;7.14;54.26
21401;BME280;18038;50.166;18.908;2023-05-11T01:28:17;98111.13;;;7.08;53.73
21401;BME280;18038;50.166;18.908;2023-05-11T01:31:37;98112.78;;;7.01;53.91
21401;BME280;18038;50.166;18.908;2023-05-11T01:34:54;98110.19;;;6.76;54.83
21401;BME280;18038;50.166;18.908;2023-05-11T01:38:12;98118.50;;;6.82;54.71
21401;BME280;18038;50.166;18.908;2023-05-11T01:41:22;98115.19;;;6.63;55.77
21401;BME280;18038;50.166;18.908;2023-05-11T01:44:33;98110.22;;;6.60;55.56
21401;BME280;18038;50.166;18.908;2023-05-11T01:47:49;98113.19;;;6.57;56.05
21401;BME280;18038;50.166;18.908;2023-05-11T01:51:02;98113.88;;;6.43;56.39
21401;BME280;18038;50.166;18.908;2023-05-11T01:54:12;98116.34;;;6.28;56.81
21401;BME280;18038;50.166;18.908;2023-05-11T01:57:20;98113.69;;;6.36;56.77
21401;BME280;18038;50.166;18.908;2023-05-11T02:00:29;98116.19;;;6.29;56.73
21401;BME280;18038;50.166;18.908;2023-05-11T02:03:41;98123.00;;;6.32;57.10
21401;BME280;18038;50.166;18.908;2023-05-11T02:06:55;98121.69;;;6.44;56.52
21401;BME280;18038;50.166;18.908;2023-05-11T02:10:06;98126.78;;;6.54;56.08
21401;BME280;18038;50.166;18.908;2023-05-11T02:13:18;98122.63;;;6.68;55.59
21401;BME280;18038;50.166;18.908;2023-05-11T02:16:29;98130.78;;;6.66;55.72
21401;BME280;18038;50.166;18.908;2023-05-11T02:19:43;98133.94;;;6.45;56.68
21401;BME280;18038;50.166;18.908;2023-05-11T02:22:53;98127.63;;;6.38;56.98
21401;BME280;18038;50.166;18.908;2023-05-11T02:26:03;98124.97;;;6.30;57.35
21401;BME280;18038;50.166;18.908;2023-05-11T02:29:13;98120.19;;;6.42;57.17
21401;BME280;18038;50.166;18.908;2023-05-11T02:32:22;98124.00;;;6.39;57.73
21401;BME280;18038;50.166;18.908;2023-05-11T02:35:37;98129.94;;;6.33;57.84
21401;BME280;18038;50.166;18.908;2023-05-11T02:38:56;98125.16;;;6.28;58.24
21401;BME280;18038;50.166;18.908;2023-05-11T02:42:13;98132.09;;;6.21;58.51
21401;BME280;18038;50.166;18.908;2023-05-11T02:45:30;98127.75;;;6.12;59.09
21401;BME280;18038;50.166;18.908;2023-05-11T02:48:48;98126.59;;;6.15;59.01
21401;BME280;18038;50.166;18.908;2023-05-11T02:52:05;98127.59;;;5.97;59.93
21401;BME280;18038;50.166;18.908;2023-05-11T02:55:21;98128.53;;;5.80;60.44
21401;BME280;18038;50.166;18.908;2023-05-11T02:58:29;98127.56;;;5.89;60.06
21401;BME280;18038;50.166;18.908;2023-05-11T03:01:51;98129.38;;;5.88;59.99
21401;BME280;18038;50.166;18.908;2023-05-11T03:05:06;98117.31;;;5.86;60.33
21401;BME280;18038;50.166;18.908;2023-05-11T03:08:15;98121.94;;;5.92;59.60
21401;BME280;18038;50.166;18.908;2023-05-11T03:11:25;98125.06;;;5.79;60.29
21401;BME280;18038;50.166;18.908;2023-05-11T03:14:33;98122.75;;;5.84;60.52
21401;BME280;18038;50.166;18.908;2023-05-11T03:17:43;98123.22;;;5.80;60.40
21401;BME280;18038;50.166;18.908;2023-05-11T03:20:51;98125.75;;;5.89;60.16
21401;BME280;18038;50.166;18.908;2023-05-11T03:24:02;98125.88;;;5.72;60.72
21401;BME280;18038;50.166;18.908;2023-05-11T03:27:11;98127.19;;;5.67;61.34
21401;BME280;18038;50.166;18.908;2023-05-11T03:30:22;98131.28;;;5.62;60.79
21401;BME280;18038;50.166;18.908;2023-05-11T03:33:31;98123.56;;;5.77;60.63
21401;BME280;18038;50.166;18.908;2023-05-11T03:36:44;98125.25;;;5.86;59.52
21401;BME280;18038;50.166;18.908;2023-05-11T03:40:00;98124.94;;;6.05;58.55
21401;BME280;18038;50.166;18.908;2023-05-11T03:43:20;98124.81;;;6.15;58.28
21401;BME280;18038;50.166;18.908;2023-05-11T03:46:29;98126.31;;;6.34;57.07
21401;BME280;18038;50.166;18.908;2023-05-11T03:49:42;98126.97;;;6.44;57.09
21401;BME280;18038;50.166;18.908;2023-05-11T03:52:50;98127.13;;;6.51;56.47
21401;BME280;18038;50.166;18.908;2023-05-11T03:56:02;98124.47;;;6.51;56.49
21401;BME280;18038;50.166;18.908;2023-05-11T03:59:13;98127.63;;;6.54;56.25
21401;BME280;18038;50.166;18.908;2023-05-11T04:02:21;98124.16;;;6.46;56.73
21401;BME280;18038;50.166;18.908;2023-05-11T04:05:31;98132.09;;;6.54;56.71
21401;BME280;18038;50.166;18.908;2023-05-11T04:08:41;98135.09;;;6.51;56.70
21401;BME280;18038;50.166;18.908;2023-05-11T04:11:50;98135.59;;;6.30;57.39
21401;BME280;18038;50.166;18.908;2023-05-11T04:14:57;98133.94;;;6.29;57.83
21401;BME280;18038;50.166;18.908;2023-05-11T04:18:03;98137.59;;;6.44;57.68
21401;BME280;18038;50.166;18.908;2023-05-11T04:21:10;98135.56;;;6.87;55.81
21401;BME280;18038;50.166;18.908;2023-05-11T04:24:17;98138.41;;;6.45;57.05
21401;BME280;18038;50.166;18.908;2023-05-11T04:27:26;98142.03;;;6.44;57.91
21401;BME280;18038;50.166;18.908;2023-05-11T04:30:32;98140.25;;;6.52;57.83
21401;BME280;18038;50.166;18.908;2023-05-11T04:33:40;98134.22;;;6.91;56.75
21401;BME280;18038;50.166;18.908;2023-05-11T04:36:50;98140.50;;;7.62;54.57
21401;BME280;18038;50.166;18.908;2023-05-11T04:39:59;98147.41;;;8.57;52.20
21401;BME280;18038;50.166;18.908;2023-05-11T04:43:14;98147.19;;;9.34;49.80
21401;BME280;18038;50.166;18.908;2023-05-11T04:46:22;98148.22;;;9.99;48.29
21401;BME280;18038;50.166;18.908;2023-05-11T04:49:28;98145.63;;;10.42;47.06
21401;BME280;18038;50.166;18.908;2023-05-11T04:52:36;98147.03;;;10.88;45.79
21401;BME280;18038;50.166;18.908;2023-05-11T04:55:42;98151.00;;;11.27;44.79
21401;BME280;18038;50.166;18.908;2023-05-11T04:58:52;98146.38;;;11.42;44.07
21401;BME280;18038;50.166;18.908;2023-05-11T05:02:02;98144.75;;;11.48;43.94
21401;BME280;18038;50.166;18.908;2023-05-11T05:05:09;98139.22;;;11.84;43.53
21401;BME280;18038;50.166;18.908;2023-05-11T05:08:15;98141.13;;;12.10;43.52
21401;BME280;18038;50.166;18.908;2023-05-11T05:11:26;98152.38;;;12.87;41.75
21401;BME280;18038;50.166;18.908;2023-05-11T05:14:35;98152.34;;;14.05;40.14
21401;BME280;18038;50.166;18.908;2023-05-11T05:17:48;98148.06;;;15.18;38.25
21401;BME280;18038;50.166;18.908;2023-05-11T05:20:55;98139.44;;;15.71;36.96
21401;BME280;18038;50.166;18.908;2023-05-11T05:24:02;98143.16;;;15.33;37.35
21401;BME280;18038;50.166;18.908;2023-05-11T05:27:13;98143.94;;;14.33;38.85
21401;BME280;18038;50.166;18.908;2023-05-11T05:30:23;98150.34;;;14.32;39.42
21401;BME280;18038;50.166;18.908;2023-05-11T05:33:29;98152.19;;;14.38;39.70
21401;BME280;18038;50.166;18.908;2023-05-11T05:36:36;98151.72;;;14.73;38.85
21401;BME280;18038;50.166;18.908;2023-05-11T05:39:42;98150.41;;;15.69;37.63
21401;BME280;18038;50.166;18.908;2023-05-11T05:42:51;98158.56;;;16.48;35.58
21401;BME280;18038;50.166;18.908;2023-05-11T05:46:01;98155.41;;;17.05;34.36
21401;BME280;18038;50.166;18.908;2023-05-11T05:49:08;98152.13;;;17.15;34.67
21401;BME280;18038;50.166;18.908;2023-05-11T05:52:15;98153.44;;;16.28;35.91
21401;BME280;18038;50.166;18.908;2023-05-11T05:55:23;98153.41;;;15.80;36.63
21401;BME280;18038;50.166;18.908;2023-05-11T05:58:31;98152.91;;;15.71;36.96
21401;BME280;18038;50.166;18.908;2023-05-11T06:01:51;98158.59;;;15.63;37.82
21401;BME280;18038;50.166;18.908;2023-05-11T06:05:05;98151.16;;;15.40;38.00
21401;BME280;18038;50.166;18.908;2023-05-11T06:08:13;98155.72;;;15.39;37.31
21401;BME280;18038;50.166;18.908;2023-05-11T06:11:19;98165.41;;;15.22;37.32
21401;BME280;18038;50.166;18.908;2023-05-11T06:14:27;98166.84;;;15.43;37.31
21401;BME280;18038;50.166;18.908;2023-05-11T06:17:37;98162.81;;;16.56;35.36
21401;BME280;18038;50.166;18.908;2023-05-11T06:20:46;98171.97;;;17.08;34.80
21401;BME280;18038;50.166;18.908;2023-05-11T06:23:53;98166.56;;;16.25;35.36
21401;BME280;18038;50.166;18.908;2023-05-11T06:27:02;98164.50;;;16.38;35.58
21401;BME280;18038;50.166;18.908;2023-05-11T06:30:11;98167.97;;;16.27;35.88
21401;BME280;18038;50.166;18.908;2023-05-11T06:33:31;98167.84;;;16.04;36.25
21401;BME280;18038;50.166;18.908;2023-05-11T06:36:39;98169.56;;;16.16;35.99
21401;BME280;18038;50.166;18.908;2023-05-11T06:39:46;98162.94;;;16.31;35.63
21401;BME280;18038;50.166;18.908;2023-05-11T06:42:53;98173.25;;;16.64;35.39
21401;BME280;18038;50.166;18.908;2023-05-11T06:46:16;98168.22;;;17.21;34.62
21401;BME280;18038;50.166;18.908;2023-05-11T06:49:25;98168.56;;;17.25;34.16
21401;BME280;18038;50.166;18.908;2023-05-11T06:52:32;98171.50;;;17.70;34.50
21401;BME280;18038;50.166;18.908;2023-05-11T06:55:38;98172.53;;;17.58;34.41
21401;BME280;18038;50.166;18.908;2023-05-11T06:58:45;98174.66;;;17.44;33.86
21401;BME280;18038;50.166;18.908;2023-05-11T07:01:51;98173.06;;;17.95;33.99
21401;BME280;18038;50.166;18.908;2023-05-11T07:05:01;98166.72;;;19.38;30.94
21401;BME280;18038;50.166;18.908;2023-05-11T07:08:07;98160.75;;;19.97;30.11
21401;BME280;18038;50.166;18.908;2023-05-11T07:11:14;98162.06;;;18.25;31.41
21401;BME280;18038;50.166;18.908;2023-05-11T07:14:20;98165.28;;;17.35;33.26
21401;BME280;18038;50.166;18.908;2023-05-11T07:17:27;98164.31;;;16.82;34.61
21401;BME280;18038;50.166;18.908;2023-05-11T07:20:36;98159.56;;;16.05;36.05
21401;BME280;18038;50.166;18.908;2023-05-11T07:23:43;98168.84;;;16.39;35.05
21401;BME280;18038;50.166;18.908;2023-05-11T07:26:49;98162.28;;;16.77;34.72
21401;BME280;18038;50.166;18.908;2023-05-11T07:29:56;98154.38;;;17.29;35.01
21401;BME280;18038;50.166;18.908;2023-05-11T07:33:22;98166.56;;;17.08;35.18
21401;BME280;18038;50.166;18.908;2023-05-11T07:36:31;98164.97;;;18.07;32.47
21401;BME280;18038;50.166;18.908;2023-05-11T07:39:39;98160.09;;;17.68;33.89
21401;BME280;18038;50.166;18.908;2023-05-11T07:42:46;98162.75;;;18.04;33.85
21401;BME280;18038;50.166;18.908;2023-05-11T07:45:52;98163.50;;;19.24;32.08
21401;BME280;18038;50.166;18.908;2023-05-11T07:49:00;98169.28;;;18.94;31.18
21401;BME280;18038;50.166;18.908;2023-05-11T07:52:22;98161.25;;;18.53;32.35
21401;BME280;18038;50.166;18.908;2023-05-11T07:55:29;98159.44;;;19.99;31.41
21401;BME280;18038;50.166;18.908;2023-05-11T07:58:35;98162.06;;;20.92;28.45
21401;BME280;18038;50.166;18.908;2023-05-11T08:01:42;98159.56;;;21.55;29.02
21401;BME280;18038;50.166;18.908;2023-05-11T08:04:48;98158.34;;;20.22;29.52
21401;BME280;18038;50.166;18.908;2023-05-11T08:07:58;98165.09;;;21.38;29.01
21401;BME280;18038;50.166;18.908;2023-05-11T08:11:04;98148.22;;;21.31;28.81
21401;BME280;18038;50.166;18.908;2023-05-11T08:14:11;98163.28;;;21.12;28.01
21401;BME280;18038;50.166;18.908;2023-05-11T08:17:25;98149.97;;;21.95;27.58
21401;BME280;18038;50.166;18.908;2023-05-11T08:20:32;98154.56;;;21.95;27.69
21401;BME280;18038;50.166;18.908;2023-05-11T08:23:41;98152.00;;;22.25;25.95
21401;BME280;18038;50.166;18.908;2023-05-11T08:26:48;98155.31;;;22.63;26.28
21401;BME280;18038;50.166;18.908;2023-05-11T08:29:54;98153.47;;;22.94;25.73
21401;BME280;18038;50.166;18.908;2023-05-11T08:33:05;98150.53;;;21.12;28.24
21401;BME280;18038;50.166;18.908;2023-05-11T08:36:31;98150.88;;;21.21;27.99
21401;BME280;18038;50.166;18.908;2023-05-11T08:39:41;98142.81;;;21.84;26.58
21401;BME280;18038;50.166;18.908;2023-05-11T08:42:54;98142.00;;;22.72;25.21
21401;BME280;18038;50.166;18.908;2023-05-11T08:46:16;98136.84;;;22.81;25.72
21401;BME280;18038;50.166;18.908;2023-05-11T08:49:29;98144.31;;;21.54;26.96
21401;BME280;18038;50.166;18.908;2023-05-11T08:52:39;98141.53;;;21.97;26.72
21401;BME280;18038;50.166;18.908;2023-05-11T08:55:49;98133.84;;;21.78;27.03
21401;BME280;18038;50.166;18.908;2023-05-11T08:58:57;98130.31;;;22.61;25.76
21401;BME280;18038;50.166;18.908;2023-05-11T09:02:05;98119.41;;;22.87;25.40
21401;BME280;18038;50.166;18.908;2023-05-11T09:05:17;98125.97;;;21.77;27.58
21401;BME280;18038;50.166;18.908;2023-05-11T09:08:29;98125.00;;;21.08;26.97
21401;BME280;18038;50.166;18.908;2023-05-11T09:11:40;98122.88;;;20.24;28.85
21401;BME280;18038;50.166;18.908;2023-05-11T09:14:51;98124.69;;;19.74;28.81
21401;BME280;18038;50.166;18.908;2023-05-11T09:18:06;98127.19;;;19.59;28.46
21401;BME280;18038;50.166;18.908;2023-05-11T09:21:12;98121.22;;;20.23;27.62
21401;BME280;18038;50.166;18.908;2023-05-11T09:24:20;98119.63;;;19.22;26.67
21401;BME280;18038;50.166;18.908;2023-05-11T09:27:29;98119.47;;;20.39;27.34
21401;BME280;18038;50.166;18.908;2023-05-11T09:30:43;98110.06;;;21.11;27.90
21401;BME280;18038;50.166;18.908;2023-05-11T09:34:07;98127.25;;;22.27;26.56
21401;BME280;18038;50.166;18.908;2023-05-11T09:37:21;98116.25;;;21.96;24.48
21401;BME280;18038;50.166;18.908;2023-05-11T09:40:28;98110.50;;;21.82;25.32
21401;BME280;18038;50.166;18.908;2023-05-11T09:43:39;98122.47;;;21.92;23.40
21401;BME280;18038;50.166;18.908;2023-05-11T09:46:46;98115.03;;;20.82;23.95
21401;BME280;18038;50.166;18.908;2023-05-11T09:49:53;98114.28;;;20.64;23.93
21401;BME280;18038;50.166;18.908;2023-05-11T09:52:59;98113.84;;;18.96;27.67
21401;BME280;18038;50.166;18.908;2023-05-11T09:56:07;98111.56;;;18.43;28.28
21401;BME280;18038;50.166;18.908;2023-05-11T09:59:36;98110.91;;;18.07;29.06
21401;BME280;18038;50.166;18.908;2023-05-11T10:02:44;98096.09;;;19.22;28.31
21401;BME280;18038;50.166;18.908;2023-05-11T10:05:59;98101.28;;;20.34;27.19
21401;BME280;18038;50.166;18.908;2023-05-11T10:09:10;98093.59;;;20.85;24.87
21401;BME280;18038;50.166;18.908;2023-05-11T10:12:21;98091.47;;;20.33;25.50
21401;BME280;18038;50.166;18.908;2023-05-11T10:15:33;98087.53;;;21.10;24.04
21401;BME280;18038;50.166;18.908;2023-05-11T10:18:41;98094.75;;;22.00;23.80
21401;BME280;18038;50.166;18.908;2023-05-11T10:21:48;98087.25;;;20.42;23.43
21401;BME280;18038;50.166;18.908;2023-05-11T10:24:57;98088.38;;;20.19;24.52
21401;BME280;18038;50.166;18.908;2023-05-11T10:28:05;98083.31;;;20.87;25.16
21401;BME280;18038;50.166;18.908;2023-05-11T10:31:14;98084.88;;;21.68;22.80
21401;BME280;18038;50.166;18.908;2023-05-11T10:34:27;98073.69;;;20.74;22.46
21401;BME280;18038;50.166;18.908;2023-05-11T10:37:34;98074.88;;;20.89;21.85
21401;BME280;18038;50.166;18.908;2023-05-11T10:40:44;98073.81;;;21.32;21.94
21401;BME280;18038;50.166;18.908;2023-05-11T10:44:12;98061.06;;;21.38;21.20
21401;BME280;18038;50.166;18.908;2023-05-11T10:47:59;98071.44;;;18.85;23.16
21401;BME280;18038;50.166;18.908;2023-05-11T10:51:36;98068.25;;;19.44;23.47
21401;BME280;18038;50.166;18.908;2023-05-11T10:55:07;98068.16;;;19.83;22.42
21401;BME280;18038;50.166;18.908;2023-05-11T10:58:35;98059.41;;;20.25;21.34
21401;BME280;18038;50.166;18.908;2023-05-11T11:02:21;98057.78;;;20.56;20.74
21401;BME280;18038;50.166;18.908;2023-05-11T11:05:39;98054.03;;;20.03;20.93
21401;BME280;18038;50.166;18.908;2023-05-11T11:08:56;98053.13;;;19.48;21.35
21401;BME280;18038;50.166;18.908;2023-05-11T11:12:09;98048.34;;;19.16;21.98
21401;BME280;18038;50.166;18.908;2023-05-11T11:15:19;98045.25;;;19.96;21.60
21401;BME280;18038;50.166;18.908;2023-05-11T11:18:27;98050.91;;;19.89;22.45
21401;BME280;18038;50.166;18.908;2023-05-11T11:21:41;98059.50;;;20.67;21.89
21401;BME280;18038;50.166;18.908;2023-05-11T11:24:47;98054.22;;;20.50;20.26
21401;BME280;18038;50.166;18.908;2023-05-11T11:27:56;98046.38;;;20.54;20.35
21401;BME280;18038;50.166;18.908;2023-05-11T11:31:27;98055.97;;;20.34;20.00
21401;BME280;18038;50.166;18.908;2023-05-11T11:34:35;98056.25;;;20.70;18.92
21401;BME280;18038;50.166;18.908;2023-05-11T11:38:01;98053.50;;;20.33;20.06
21401;BME280;18038;50.166;18.908;2023-05-11T11:41:09;98047.59;;;21.06;19.23
21401;BME280;18038;50.166;18.908;2023-05-11T11:44:21;98041.78;;;20.87;19.33
21401;BME280;18038;50.166;18.908;2023-05-11T11:47:28;98047.22;;;20.59;19.75
21401;BME280;18038;50.166;18.908;2023-05-11T11:50:35;98050.31;;;20.41;18.78
21401;BME280;18038;50.166;18.908;2023-05-11T11:54:06;98049.44;;;20.95;17.17
21401;BME280;18038;50.166;18.908;2023-05-11T12:00:54;98039.91;;;20.92;15.93
21401;BME280;18038;50.166;18.908;2023-05-11T12:07:49;98041.34;;;20.35;18.47
21401;BME280;18038;50.166;18.908;2023-05-11T12:10:59;98032.72;;;20.76;19.75
21401;BME280;18038;50.166;18.908;2023-05-11T12:14:08;98037.41;;;21.33;18.86
21401;BME280;18038;50.166;18.908;2023-05-11T12:17:28;98040.25;;;20.69;18.52
21401;BME280;18038;50.166;18.908;2023-05-11T12:20:37;98034.81;;;19.55;17.15
21401;BME280;18038;50.166;18.908;2023-05-11T12:23:51;98032.47;;;20.45;17.97
21401;BME280;18038;50.166;18.908;2023-05-11T12:27:07;98023.28;;;19.92;18.28
21401;BME280;18038;50.166;18.908;2023-05-11T12:30:24;98022.81;;;19.51;19.20
21401;BME280;18038;50.166;18.908;2023-05-11T12:33:32;98018.84;;;19.59;21.80
21401;BME280;18038;50.166;18.908;2023-05-11T12:36:38;98015.34;;;19.19;21.66
21401;BME280;18038;50.166;18.908;2023-05-11T12:39:45;98020.69;;;19.31;21.81
21401;BME280;18038;50.166;18.908;2023-05-11T12:43:00;98009.66;;;19.38;22.02
21401;BME280;18038;50.166;18.908;2023-05-11T12:46:07;98021.56;;;19.81;22.64
21401;BME280;18038;50.166;18.908;2023-05-11T12:49:15;98016.66;;;19.34;22.97
21401;BME280;18038;50.166;18.908;2023-05-11T12:52:26;98003.38;;;19.54;22.66
21401;BME280;18038;50.166;18.908;2023-05-11T12:55:32;98006.50;;;19.24;23.38
21401;BME280;18038;50.166;18.908;2023-05-11T12:58:49;98005.75;;;18.90;24.66
21401;BME280;18038;50.166;18.908;2023-05-11T13:02:04;97992.66;;;19.20;24.61
21401;BME280;18038;50.166;18.908;2023-05-11T13:05:24;97992.22;;;19.29;23.98
21401;BME280;18038;50.166;18.908;2023-05-11T13:08:31;97989.44;;;19.23;25.30
21401;BME280;18038;50.166;18.908;2023-05-11T13:11:44;97985.56;;;18.97;26.58
21401;BME280;18038;50.166;18.908;2023-05-11T13:15:08;97980.97;;;18.98;26.62
21401;BME280;18038;50.166;18.908;2023-05-11T13:18:17;97981.84;;;18.81;26.27
21401;BME280;18038;50.166;18.908;2023-05-11T13:21:23;97977.50;;;18.80;26.37
21401;BME280;18038;50.166;18.908;2023-05-11T13:24:31;97979.84;;;18.94;25.80
21401;BME280;18038;50.166;18.908;2023-05-11T13:27:38;97973.16;;;18.79;26.24
21401;BME280;18038;50.166;18.908;2023-05-11T13:30:48;97970.44;;;18.79;25.99
21401;BME280;18038;50.166;18.908;2023-05-11T13:34:06;97966.22;;;18.50;25.41
21401;BME280;18038;50.166;18.908;2023-05-11T13:37:14;97971.28;;;18.63;26.65
21401;BME280;18038;50.166;18.908;2023-05-11T13:40:20;97965.16;;;18.68;26.62
21401;BME280;18038;50.166;18.908;2023-05-11T13:43:27;97956.78;;;18.18;26.91
21401;BME280;18038;50.166;18.908;2023-05-11T13:46:36;97957.47;;;18.09;26.77
21401;BME280;18038;50.166;18.908;2023-05-11T13:49:43;97963.03;;;18.36;27.38
21401;BME280;18038;50.166;18.908;2023-05-11T13:52:49;97954.84;;;18.65;26.35
21401;BME280;18038;50.166;18.908;2023-05-11T13:55:59;97947.56;;;18.87;26.49
21401;BME280;18038;50.166;18.908;2023-05-11T13:59:23;97953.16;;;18.80;26.64
21401;BME280;18038;50.166;18.908;2023-05-11T14:02:35;97946.03;;;18.74;26.26
21401;BME280;18038;50.166;18.908;2023-05-11T14:05:42;97949.63;;;18.80;26.54
21401;BME280;18038;50.166;18.908;2023-05-11T14:08:51;97954.78;;;18.81;26.63
21401;BME280;18038;50.166;18.908;2023-05-11T14:11:58;97950.97;;;18.44;26.39
21401;BME280;18038;50.166;18.908;2023-05-11T14:15:08;97945.88;;;18.47;26.50
21401;BME280;18038;50.166;18.908;2023-05-11T14:18:17;97943.28;;;18.52;26.20
21401;BME280;18038;50.166;18.908;2023-05-11T14:21:29;97937.03;;;18.69;26.55
21401;BME280;18038;50.166;18.908;2023-05-11T14:24:36;97943.75;;;18.66;25.98
21401;BME280;18038;50.166;18.908;2023-05-11T14:27:43;97942.88;;;18.44;26.32
21401;BME280;18038;50.166;18.908;2023-05-11T14:30:51;97941.03;;;18.66;26.16
21401;BME280;18038;50.166;18.908;2023-05-11T14:34:01;97919.91;;;18.46;26.54
21401;BME280;18038;50.166;18.908;2023-05-11T14:37:07;97929.53;;;18.54;27.26
21401;BME280;18038;50.166;18.908;2023-05-11T14:40:15;97937.13;;;18.57;27.02
21401;BME280;18038;50.166;18.908;2023-05-11T14:43:22;97929.16;;;18.67;27.27
21401;BME280;18038;50.166;18.908;2023-05-11T14:46:29;97926.09;;;18.80;26.57
21401;BME280;18038;50.166;18.908;2023-05-11T14:49:38;97928.16;;;18.73;26.58
21401;BME280;18038;50.166;18.908;2023-05-11T14:52:45;97928.38;;;18.33;26.97
21401;BME280;18038;50.166;18.908;2023-05-11T14:55:51;97931.84;;;18.11;27.44
21401;BME280;18038;50.166;18.908;2023-05-11T14:58:58;97938.63;;;18.14;27.58
21401;BME280;18038;50.166;18.908;2023-05-11T15:02:07;97924.69;;;18.22;26.93
21401;BME280;18038;50.166;18.908;2023-05-11T15:05:16;97934.38;;;18.01;27.75
21401;BME280;18038;50.166;18.908;2023-05-11T15:08:22;97932.25;;;18.03;28.10
21401;BME280;18038;50.166;18.908;2023-05-11T15:11:32;97925.84;;;18.09;27.32
21401;BME280;18038;50.166;18.908;2023-05-11T15:14:39;97921.44;;;18.03;27.21
21401;BME280;18038;50.166;18.908;2023-05-11T15:17:45;97917.25;;;17.95;27.74
21401;BME280;18038;50.166;18.908;2023-05-11T15:20:54;97917.66;;;18.04;27.89
21401;BME280;18038;50.166;18.908;2023-05-11T15:24:05;97930.28;;;17.99;27.98
21401;BME280;18038;50.166;18.908;2023-05-11T15:27:13;97925.81;;;17.92;27.65
21401;BME280;18038;50.166;18.908;2023-05-11T15:30:20;97932.06;;;17.93;27.27
21401;BME280;18038;50.166;18.908;2023-05-11T15:33:28;97930.59;;;18.02;28.08
21401;BME280;18038;50.166;18.908;2023-05-11T15:36:48;97933.06;;;18.04;27.72
21401;BME280;18038;50.166;18.908;2023-05-11T15:39:56;97926.56;;;18.05;28.13
21401;BME280;18038;50.166;18.908;2023-05-11T15:43:03;97930.00;;;18.00;27.35
21401;BME280;18038;50.166;18.908;2023-05-11T15:46:10;97925.75;;;17.87;27.53
21401;BME280;18038;50.166;18.908;2023-05-11T15:49:26;97929.50;;;17.86;27.84
21401;BME280;18038;50.166;18.908;2023-05-11T15:52:38;97934.28;;;18.13;27.49
21401;BME280;18038;50.166;18.908;2023-05-11T15:55:45;97928.97;;;18.01;28.18
21401;BME280;18038;50.166;18.908;2023-05-11T15:58:52;97932.06;;;18.10;28.50
21401;BME280;18038;50.166;18.908;2023-05-11T16:01:59;97928.38;;;17.99;27.99
21401;BME280;18038;50.166;18.908;2023-05-11T16:05:08;97926.66;;;18.10;28.08
21401;BME280;18038;50.166;18.908;2023-05-11T16:08:18;97935.66;;;17.99;28.56
21401;BME280;18038;50.166;18.908;2023-05-11T16:11:24;97926.06;;;17.74;28.56
21401;BME280;18038;50.166;18.908;2023-05-11T16:14:31;97927.97;;;17.62;29.04
21401;BME280;18038;50.166;18.908;2023-05-11T16:17:39;97928.78;;;17.74;28.45
21401;BME280;18038;50.166;18.908;2023-05-11T16:20:48;97938.69;;;17.85;29.10
21401;BME280;18038;50.166;18.908;2023-05-11T16:23:57;97936.47;;;17.82;28.18
21401;BME280;18038;50.166;18.908;2023-05-11T16:27:14;97931.16;;;17.59;29.49
21401;BME280;18038;50.166;18.908;2023-05-11T16:30:21;97932.47;;;17.56;28.89
21401;BME280;18038;50.166;18.908;2023-05-11T16:33:28;97938.41;;;17.41;29.43
21401;BME280;18038;50.166;18.908;2023-05-11T16:36:34;97931.28;;;17.23;29.19
21401;BME280;18038;50.166;18.908;2023-05-11T16:39:44;97933.38;;;17.33;29.33
21401;BME280;18038;50.166;18.908;2023-05-11T16:42:50;97941.25;;;17.35;29.56
21401;BME280;18038;50.166;18.908;2023-05-11T16:45:57;97935.69;;;17.13;29.22
21401;BME280;18038;50.166;18.908;2023-05-11T16:49:03;97937.72;;;17.05;29.04